sensor_id;sensor_type;location;lat;lon;timestamp;temperature;humidity
32534;DHT22;18973;48.580;8.912;2024-01-11T00:00:03;-2.40;99.90
32534;DHT22;18973;48.580;8.912;2024-01-11T00:02:29;-2.60;99.90
32534;DHT22;18973;48.580;8.912;2024-01-11T00:04:54;-2.50;99.90
32534;DHT22;18973;48.580;8.912;2024-01-11T00:07:20;-2.70;99.90
32534;DHT22;18973;48.580;8.912;2024-01-11T00:09:46;-2.60;99.90
32534;DHT22;18973;48.580;8.912;2024-01-11T00:12:11;-2.60;99.90
32534;DHT22;18973;48.580;8.912;2024-01-11T00:14:37;-2.40;99.90
32534;DHT22;18973;48.580;8.912;2024-01-11T00:17:03;-2.70;99.90
32534;DHT22;18973;48.580;8.912;2024-01-11T00:19:28;-2.60;99.90
32534;DHT22;18973;48.580;8.912;2024-01-11T00:21:54;-2.90;99.90
32534;DHT22;18973;48.580;8.912;2024-01-11T00:24:20;-2.80;99.90
32534;DHT22;18973;48.580;8.912;2024-01-11T00:26:45;-2.80;99.90
32534;DHT22;18973;48.580;8.912;2024-01-11T00:29:11;-2.60;99.90
32534;DHT22;18973;48.580;8.912;2024-01-11T00:31:37;-2.70;99.90
32534;DHT22;18973;48.580;8.912;2024-01-11T00:34:04;-2.50;99.90
32534;DHT22;18973;48.580;8.912;2024-01-11T00:36:29;-2.50;99.90
32534;DHT22;18973;48.580;8.912;2024-01-11T00:38:55;-2.70;99.90
32534;DHT22;18973;48.580;8.912;2024-01-11T00:41:21;-2.70;99.90
32534;DHT22;18973;48.580;8.912;2024-01-11T00:43:47;-2.60;99.90
32534;DHT22;18973;48.580;8.912;2024-01-11T00:46:13;-2.60;99.90
32534;DHT22;18973;48.580;8.912;2024-01-11T00:48:38;-2.50;99.90
32534;DHT22;18973;48.580;8.912;2024-01-11T00:51:05;-2.60;99.90
32534;DHT22;18973;48.580;8.912;2024-01-11T00:53:30;-2.80;99.90
32534;DHT22;18973;48.580;8.912;2024-01-11T00:55:57;-2.80;99.90
32534;DHT22;18973;48.580;8.912;2024-01-11T00:58:23;-2.70;99.90
32534;DHT22;18973;48.580;8.912;2024-01-11T01:00:49;-2.60;99.90
32534;DHT22;18973;48.580;8.912;2024-01-11T01:03:15;-2.50;99.90
32534;DHT22;18973;48.580;8.912;2024-01-11T01:05:44;-2.90;99.90
32534;DHT22;18973;48.580;8.912;2024-01-11T01:08:10;-3.00;99.90
32534;DHT22;18973;48.580;8.912;2024-01-11T01:10:36;-3.00;99.90
32534;DHT22;18973;48.580;8.912;2024-01-11T01:13:01;-3.30;99.90
32534;DHT22;18973;48.580;8.912;2024-01-11T01:15:28;-3.00;99.90
32534;DHT22;18973;48.580;8.912;2024-01-11T01:17:54;-2.90;99.90
32534;DHT22;18973;48.580;8.912;2024-01-11T01:20:19;-2.80;99.90
32534;DHT22;18973;48.580;8.912;2024-01-11T01:22:45;-2.90;99.90
32534;DHT22;18973;48.580;8.912;2024-01-11T01:25:11;-2.80;99.90
32534;DHT22;18973;48.580;8.912;2024-01-11T01:27:36;-2.70;99.90
32534;DHT22;18973;48.580;8.912;2024-01-11T01:30:03;-2.90;99.90
32534;DHT22;18973;48.580;8.912;2024-01-11T01:32:28;-3.20;99.90
32534;DHT22;18973;48.580;8.912;2024-01-11T01:34:55;-3.40;99.90
32534;DHT22;18973;48.580;8.912;2024-01-11T01:37:21;-3.30;99.90
32534;DHT22;18973;48.580;8.912;2024-01-11T01:39:47;-3.10;99.90
32534;DHT22;18973;48.580;8.912;2024-01-11T01:42:12;-3.30;99.90
32534;DHT22;18973;48.580;8.912;2024-01-11T01:44:38;-3.20;99.90
32534;DHT22;18973;48.580;8.912;2024-01-11T01:47:06;-3.40;99.90
32534;DHT22;18973;48.580;8.912;2024-01-11T01:49:33;-3.20;99.90
32534;DHT22;18973;48.580;8.912;2024-01-11T01:51:59;-3.40;99.90
32534;DHT22;18973;48.580;8.912;2024-01-11T01:54:25;-3.40;99.90
32534;DHT22;18973;48.580;8.912;2024-01-11T01:56:51;-3.20;99.90
32534;DHT22;18973;48.580;8.912;2024-01-11T01:59:18;-3.10;99.90
32534;DHT22;18973;48.580;8.912;2024-01-11T02:01:44;-3.00;99.90
32534;DHT22;18973;48.580;8.912;2024-01-11T02:04:10;-2.90;99.90
32534;DHT22;18973;48.580;8.912;2024-01-11T02:06:36;-3.10;99.90
32534;DHT22;18973;48.580;8.912;2024-01-11T02:09:03;-3.10;99.90
32534;DHT22;18973;48.580;8.912;2024-01-11T02:11:29;-3.30;99.90
32534;DHT22;18973;48.580;8.912;2024-01-11T02:13:55;-3.20;99.90
32534;DHT22;18973;48.580;8.912;2024-01-11T02:16:23;-3.00;99.90
32534;DHT22;18973;48.580;8.912;2024-01-11T02:18:49;-3.00;99.90
32534;DHT22;18973;48.580;8.912;2024-01-11T02:21:15;-3.00;99.90
32534;DHT22;18973;48.580;8.912;2024-01-11T02:24:04;-3.30;99.90
32534;DHT22;18973;48.580;8.912;2024-01-11T02:26:29;-3.20;99.90
32534;DHT22;18973;48.580;8.912;2024-01-11T02:28:55;-3.10;99.90
32534;DHT22;18973;48.580;8.912;2024-01-11T02:31:21;-3.00;99.90
32534;DHT22;18973;48.580;8.912;2024-01-11T02:33:47;-3.00;99.90
32534;DHT22;18973;48.580;8.912;2024-01-11T02:36:13;-3.00;99.90
32534;DHT22;18973;48.580;8.912;2024-01-11T02:38:41;-3.10;99.90
32534;DHT22;18973;48.580;8.912;2024-01-11T02:41:08;-3.10;99.90
32534;DHT22;18973;48.580;8.912;2024-01-11T02:43:34;-3.50;99.90
32534;DHT22;18973;48.580;8.912;2024-01-11T02:46:02;-3.40;99.90
32534;DHT22;18973;48.580;8.912;2024-01-11T02:48:28;-3.20;99.90
32534;DHT22;18973;48.580;8.912;2024-01-11T02:50:55;-3.20;99.90
32534;DHT22;18973;48.580;8.912;2024-01-11T02:53:21;-3.10;99.90
32534;DHT22;18973;48.580;8.912;2024-01-11T02:55:47;-3.10;99.90
32534;DHT22;18973;48.580;8.912;2024-01-11T02:58:12;-3.20;99.90
32534;DHT22;18973;48.580;8.912;2024-01-11T03:00:38;-3.50;99.90
32534;DHT22;18973;48.580;8.912;2024-01-11T03:03:04;-3.80;99.90
32534;DHT22;18973;48.580;8.912;2024-01-11T03:05:30;-3.70;99.90
32534;DHT22;18973;48.580;8.912;2024-01-11T03:07:55;-3.50;99.90
32534;DHT22;18973;48.580;8.912;2024-01-11T03:10:21;-3.40;99.90
32534;DHT22;18973;48.580;8.912;2024-01-11T03:12:48;-3.50;99.90
32534;DHT22;18973;48.580;8.912;2024-01-11T03:15:15;-3.70;99.90
32534;DHT22;18973;48.580;8.912;2024-01-11T03:17:41;-4.00;99.90
32534;DHT22;18973;48.580;8.912;2024-01-11T03:20:07;-3.80;99.90
32534;DHT22;18973;48.580;8.912;2024-01-11T03:22:33;-4.10;99.90
32534;DHT22;18973;48.580;8.912;2024-01-11T03:24:58;-3.90;99.90
32534;DHT22;18973;48.580;8.912;2024-01-11T03:27:24;-3.70;99.90
32534;DHT22;18973;48.580;8.912;2024-01-11T03:29:50;-3.50;99.90
32534;DHT22;18973;48.580;8.912;2024-01-11T03:32:16;-3.80;99.90
32534;DHT22;18973;48.580;8.912;2024-01-11T03:34:42;-4.00;99.90
32534;DHT22;18973;48.580;8.912;2024-01-11T03:37:07;-3.80;99.90
32534;DHT22;18973;48.580;8.912;2024-01-11T03:39:34;-3.70;99.90
32534;DHT22;18973;48.580;8.912;2024-01-11T03:42:00;-3.90;99.90
32534;DHT22;18973;48.580;8.912;2024-01-11T03:44:26;-3.60;99.90
32534;DHT22;18973;48.580;8.912;2024-01-11T03:46:51;-3.50;99.90
32534;DHT22;18973;48.580;8.912;2024-01-11T03:49:17;-3.80;99.90
32534;DHT22;18973;48.580;8.912;2024-01-11T03:51:43;-3.70;99.90
32534;DHT22;18973;48.580;8.912;2024-01-11T03:54:09;-3.80;99.90
32534;DHT22;18973;48.580;8.912;2024-01-11T03:56:39;-3.60;99.90
32534;DHT22;18973;48.580;8.912;2024-01-11T03:59:05;-3.50;99.90
32534;DHT22;18973;48.580;8.912;2024-01-11T04:01:39;-3.70;99.90
32534;DHT22;18973;48.580;8.912;2024-01-11T04:04:05;-3.80;99.90
32534;DHT22;18973;48.580;8.912;2024-01-11T04:06:30;-3.80;99.90
32534;DHT22;18973;48.580;8.912;2024-01-11T04:08:56;-3.90;99.90
32534;DHT22;18973;48.580;8.912;2024-01-11T04:11:22;-3.90;99.90
32534;DHT22;18973;48.580;8.912;2024-01-11T04:13:48;-3.80;99.90
32534;DHT22;18973;48.580;8.912;2024-01-11T04:16:14;-3.60;99.90
32534;DHT22;18973;48.580;8.912;2024-01-11T04:18:40;-3.50;99.90
32534;DHT22;18973;48.580;8.912;2024-01-11T04:21:05;-3.70;99.90
32534;DHT22;18973;48.580;8.912;2024-01-11T04:23:31;-3.60;99.90
32534;DHT22;18973;48.580;8.912;2024-01-11T04:25:57;-3.60;99.90
32534;DHT22;18973;48.580;8.912;2024-01-11T04:28:22;-3.80;99.90
32534;DHT22;18973;48.580;8.912;2024-01-11T04:30:48;-3.90;99.90
32534;DHT22;18973;48.580;8.912;2024-01-11T04:33:13;-3.70;99.90
32534;DHT22;18973;48.580;8.912;2024-01-11T04:35:39;-3.50;99.90
32534;DHT22;18973;48.580;8.912;2024-01-11T04:38:05;-3.60;99.90
32534;DHT22;18973;48.580;8.912;2024-01-11T04:40:30;-3.70;99.90
32534;DHT22;18973;48.580;8.912;2024-01-11T04:42:56;-3.60;99.90
32534;DHT22;18973;48.580;8.912;2024-01-11T04:45:22;-3.70;99.90
32534;DHT22;18973;48.580;8.912;2024-01-11T04:47:50;-3.90;99.90
32534;DHT22;18973;48.580;8.912;2024-01-11T04:50:16;-3.80;99.90
32534;DHT22;18973;48.580;8.912;2024-01-11T04:52:41;-3.80;99.90
32534;DHT22;18973;48.580;8.912;2024-01-11T04:55:07;-4.20;99.90
32534;DHT22;18973;48.580;8.912;2024-01-11T04:57:33;-4.10;99.90
32534;DHT22;18973;48.580;8.912;2024-01-11T04:59:59;-3.90;99.90
32534;DHT22;18973;48.580;8.912;2024-01-11T05:02:24;-3.80;99.90
32534;DHT22;18973;48.580;8.912;2024-01-11T05:04:50;-3.70;99.90
32534;DHT22;18973;48.580;8.912;2024-01-11T05:07:16;-3.80;99.90
32534;DHT22;18973;48.580;8.912;2024-01-11T05:09:41;-4.00;99.90
32534;DHT22;18973;48.580;8.912;2024-01-11T05:12:07;-3.80;99.90
32534;DHT22;18973;48.580;8.912;2024-01-11T05:14:33;-3.80;99.90
32534;DHT22;18973;48.580;8.912;2024-01-11T05:16:59;-3.60;99.90
32534;DHT22;18973;48.580;8.912;2024-01-11T05:19:24;-3.60;99.90
32534;DHT22;18973;48.580;8.912;2024-01-11T05:21:50;-4.00;99.90
32534;DHT22;18973;48.580;8.912;2024-01-11T05:24:16;-4.10;99.90
32534;DHT22;18973;48.580;8.912;2024-01-11T05:26:41;-3.90;99.90
32534;DHT22;18973;48.580;8.912;2024-01-11T05:29:07;-3.90;99.90
32534;DHT22;18973;48.580;8.912;2024-01-11T05:31:32;-4.00;99.90
32534;DHT22;18973;48.580;8.912;2024-01-11T05:33:58;-3.90;99.90
32534;DHT22;18973;48.580;8.912;2024-01-11T05:36:24;-3.90;99.90
32534;DHT22;18973;48.580;8.912;2024-01-11T05:38:49;-3.90;99.90
32534;DHT22;18973;48.580;8.912;2024-01-11T05:41:15;-3.80;99.90
32534;DHT22;18973;48.580;8.912;2024-01-11T05:43:41;-4.00;99.90
32534;DHT22;18973;48.580;8.912;2024-01-11T05:46:08;-4.00;99.90
32534;DHT22;18973;48.580;8.912;2024-01-11T05:48:34;-4.10;99.90
32534;DHT22;18973;48.580;8.912;2024-01-11T05:50:59;-3.90;99.90
32534;DHT22;18973;48.580;8.912;2024-01-11T05:53:25;-4.40;99.90
32534;DHT22;18973;48.580;8.912;2024-01-11T05:55:53;-4.50;99.90
32534;DHT22;18973;48.580;8.912;2024-01-11T05:58:19;-4.50;99.90
32534;DHT22;18973;48.580;8.912;2024-01-11T06:00:45;-4.40;99.90
32534;DHT22;18973;48.580;8.912;2024-01-11T06:03:14;-4.50;99.90
32534;DHT22;18973;48.580;8.912;2024-01-11T06:05:40;-4.40;99.90
32534;DHT22;18973;48.580;8.912;2024-01-11T06:08:06;-4.20;99.90
32534;DHT22;18973;48.580;8.912;2024-01-11T06:10:33;-4.00;99.90
32534;DHT22;18973;48.580;8.912;2024-01-11T06:12:59;-4.10;99.90
32534;DHT22;18973;48.580;8.912;2024-01-11T06:15:24;-4.00;99.90
32534;DHT22;18973;48.580;8.912;2024-01-11T06:17:50;-4.20;99.90
32534;DHT22;18973;48.580;8.912;2024-01-11T06:20:16;-4.10;99.90
32534;DHT22;18973;48.580;8.912;2024-01-11T06:22:41;-4.20;99.90
32534;DHT22;18973;48.580;8.912;2024-01-11T06:25:08;-4.10;99.90
32534;DHT22;18973;48.580;8.912;2024-01-11T06:27:34;-4.00;99.90
32534;DHT22;18973;48.580;8.912;2024-01-11T06:29:59;-4.10;99.90
32534;DHT22;18973;48.580;8.912;2024-01-11T06:32:25;-4.10;99.90
32534;DHT22;18973;48.580;8.912;2024-01-11T06:34:51;-4.00;99.90
32534;DHT22;18973;48.580;8.912;2024-01-11T06:37:16;-3.90;99.90
32534;DHT22;18973;48.580;8.912;2024-01-11T06:39:42;-4.40;99.90
32534;DHT22;18973;48.580;8.912;2024-01-11T06:42:08;-4.40;99.90
32534;DHT22;18973;48.580;8.912;2024-01-11T06:44:33;-4.20;99.90
32534;DHT22;18973;48.580;8.912;2024-01-11T06:46:59;-4.20;99.90
32534;DHT22;18973;48.580;8.912;2024-01-11T06:49:27;-4.10;99.90
32534;DHT22;18973;48.580;8.912;2024-01-11T06:51:52;-4.00;99.90
32534;DHT22;18973;48.580;8.912;2024-01-11T06:54:18;-3.90;99.90
32534;DHT22;18973;48.580;8.912;2024-01-11T06:56:44;-3.80;99.90
32534;DHT22;18973;48.580;8.912;2024-01-11T06:59:10;-3.90;99.90
32534;DHT22;18973;48.580;8.912;2024-01-11T07:01:35;-4.00;99.90
32534;DHT22;18973;48.580;8.912;2024-01-11T07:04:01;-4.00;99.90
32534;DHT22;18973;48.580;8.912;2024-01-11T07:06:27;-4.00;99.90
32534;DHT22;18973;48.580;8.912;2024-01-11T07:08:53;-3.90;99.90
32534;DHT22;18973;48.580;8.912;2024-01-11T07:11:18;-4.00;99.90
32534;DHT22;18973;48.580;8.912;2024-01-11T07:13:44;-3.90;99.90
32534;DHT22;18973;48.580;8.912;2024-01-11T07:16:10;-4.00;99.90
32534;DHT22;18973;48.580;8.912;2024-01-11T07:18:35;-4.00;99.90
32534;DHT22;18973;48.580;8.912;2024-01-11T07:21:01;-4.00;99.90
32534;DHT22;18973;48.580;8.912;2024-01-11T07:23:27;-4.10;99.90
32534;DHT22;18973;48.580;8.912;2024-01-11T07:25:53;-4.00;99.90
32534;DHT22;18973;48.580;8.912;2024-01-11T07:28:18;-4.00;99.90
32534;DHT22;18973;48.580;8.912;2024-01-11T07:30:45;-4.00;99.90
32534;DHT22;18973;48.580;8.912;2024-01-11T07:33:11;-4.00;99.90
32534;DHT22;18973;48.580;8.912;2024-01-11T07:35:37;-3.90;99.90
32534;DHT22;18973;48.580;8.912;2024-01-11T07:38:03;-3.90;99.90
32534;DHT22;18973;48.580;8.912;2024-01-11T07:40:29;-3.70;99.90
32534;DHT22;18973;48.580;8.912;2024-01-11T07:42:55;-3.60;99.90
32534;DHT22;18973;48.580;8.912;2024-01-11T07:45:21;-3.50;99.90
32534;DHT22;18973;48.580;8.912;2024-01-11T07:47:46;-3.40;99.90
32534;DHT22;18973;48.580;8.912;2024-01-11T07:50:12;-3.20;99.90
32534;DHT22;18973;48.580;8.912;2024-01-11T07:52:38;-3.60;99.90
32534;DHT22;18973;48.580;8.912;2024-01-11T07:55:07;-3.30;99.90
32534;DHT22;18973;48.580;8.912;2024-01-11T07:57:37;-3.20;99.90
32534;DHT22;18973;48.580;8.912;2024-01-11T08:00:07;-3.40;99.90
32534;DHT22;18973;48.580;8.912;2024-01-11T08:02:34;-3.70;99.90
32534;DHT22;18973;48.580;8.912;2024-01-11T08:04:59;-3.30;99.90
32534;DHT22;18973;48.580;8.912;2024-01-11T08:07:29;-3.20;99.90
32534;DHT22;18973;48.580;8.912;2024-01-11T08:09:55;-2.80;99.90
32534;DHT22;18973;48.580;8.912;2024-01-11T08:12:21;-2.50;99.90
32534;DHT22;18973;48.580;8.912;2024-01-11T08:14:46;-2.00;99.90
32534;DHT22;18973;48.580;8.912;2024-01-11T08:17:14;-1.80;99.90
32534;DHT22;18973;48.580;8.912;2024-01-11T08:19:40;-1.40;99.90
32534;DHT22;18973;48.580;8.912;2024-01-11T08:22:08;-1.20;99.90
32534;DHT22;18973;48.580;8.912;2024-01-11T08:24:35;-1.00;99.90
32534;DHT22;18973;48.580;8.912;2024-01-11T08:27:00;-0.50;99.90
32534;DHT22;18973;48.580;8.912;2024-01-11T08:29:26;-0.30;99.90
32534;DHT22;18973;48.580;8.912;2024-01-11T08:31:53;-0.10;99.90
32534;DHT22;18973;48.580;8.912;2024-01-11T08:34:23;0.10;99.90
32534;DHT22;18973;48.580;8.912;2024-01-11T08:36:51;-0.20;99.90
32534;DHT22;18973;48.580;8.912;2024-01-11T08:39:17;0.20;99.90
32534;DHT22;18973;48.580;8.912;2024-01-11T08:41:43;0.50;99.90
32534;DHT22;18973;48.580;8.912;2024-01-11T08:44:09;0.90;99.90
32534;DHT22;18973;48.580;8.912;2024-01-11T08:46:34;1.30;99.90
32534;DHT22;18973;48.580;8.912;2024-01-11T08:49:01;1.50;99.90
32534;DHT22;18973;48.580;8.912;2024-01-11T08:51:29;1.20;99.90
32534;DHT22;18973;48.580;8.912;2024-01-11T08:53:55;1.70;99.90
32534;DHT22;18973;48.580;8.912;2024-01-11T08:56:23;2.10;99.90
32534;DHT22;18973;48.580;8.912;2024-01-11T08:58:49;1.90;99.60
32534;DHT22;18973;48.580;8.912;2024-01-11T09:01:15;2.00;99.70
32534;DHT22;18973;48.580;8.912;2024-01-11T09:03:41;2.10;99.90
32534;DHT22;18973;48.580;8.912;2024-01-11T09:06:07;2.40;99.90
32534;DHT22;18973;48.580;8.912;2024-01-11T09:08:32;2.40;99.70
32534;DHT22;18973;48.580;8.912;2024-01-11T09:10:59;2.20;99.90
32534;DHT22;18973;48.580;8.912;2024-01-11T09:13:25;2.30;99.30
32534;DHT22;18973;48.580;8.912;2024-01-11T09:15:55;2.30;99.30
32534;DHT22;18973;48.580;8.912;2024-01-11T09:18:21;2.20;99.70
32534;DHT22;18973;48.580;8.912;2024-01-11T09:20:47;2.20;99.80
32534;DHT22;18973;48.580;8.912;2024-01-11T09:23:14;2.30;99.30
32534;DHT22;18973;48.580;8.912;2024-01-11T09:25:40;2.30;99.10
32534;DHT22;18973;48.580;8.912;2024-01-11T09:28:05;2.30;99.20
32534;DHT22;18973;48.580;8.912;2024-01-11T09:30:31;2.30;99.20
32534;DHT22;18973;48.580;8.912;2024-01-11T09:32:57;2.00;99.90
32534;DHT22;18973;48.580;8.912;2024-01-11T09:35:23;2.00;99.90
32534;DHT22;18973;48.580;8.912;2024-01-11T09:37:51;2.00;99.90
32534;DHT22;18973;48.580;8.912;2024-01-11T09:40:18;2.00;99.90
32534;DHT22;18973;48.580;8.912;2024-01-11T09:42:44;2.00;99.90
32534;DHT22;18973;48.580;8.912;2024-01-11T09:45:12;2.00;99.90
32534;DHT22;18973;48.580;8.912;2024-01-11T09:47:39;1.90;99.90
32534;DHT22;18973;48.580;8.912;2024-01-11T09:50:06;2.00;99.90
32534;DHT22;18973;48.580;8.912;2024-01-11T09:52:33;1.90;99.90
32534;DHT22;18973;48.580;8.912;2024-01-11T09:55:01;1.90;99.90
32534;DHT22;18973;48.580;8.912;2024-01-11T09:57:31;2.00;99.90
32534;DHT22;18973;48.580;8.912;2024-01-11T10:00:04;2.10;99.90
32534;DHT22;18973;48.580;8.912;2024-01-11T10:02:33;2.10;99.90
32534;DHT22;18973;48.580;8.912;2024-01-11T10:04:59;2.10;99.90
32534;DHT22;18973;48.580;8.912;2024-01-11T10:07:25;1.80;99.90
32534;DHT22;18973;48.580;8.912;2024-01-11T10:09:51;1.90;99.90
32534;DHT22;18973;48.580;8.912;2024-01-11T10:12:23;1.90;99.90
32534;DHT22;18973;48.580;8.912;2024-01-11T10:14:53;1.80;99.90
32534;DHT22;18973;48.580;8.912;2024-01-11T10:17:19;1.80;99.90
32534;DHT22;18973;48.580;8.912;2024-01-11T10:19:45;1.90;99.90
32534;DHT22;18973;48.580;8.912;2024-01-11T10:22:11;2.00;99.90
32534;DHT22;18973;48.580;8.912;2024-01-11T10:24:42;2.10;99.90
32534;DHT22;18973;48.580;8.912;2024-01-11T10:27:09;2.30;99.90
32534;DHT22;18973;48.580;8.912;2024-01-11T10:29:35;2.50;99.90
32534;DHT22;18973;48.580;8.912;2024-01-11T10:32:04;2.50;99.90
32534;DHT22;18973;48.580;8.912;2024-01-11T10:34:30;2.50;99.90
32534;DHT22;18973;48.580;8.912;2024-01-11T10:36:56;2.60;99.90
32534;DHT22;18973;48.580;8.912;2024-01-11T10:39:24;2.60;99.90
32534;DHT22;18973;48.580;8.912;2024-01-11T10:42:06;2.40;99.90
32534;DHT22;18973;48.580;8.912;2024-01-11T10:44:34;2.10;99.90
32534;DHT22;18973;48.580;8.912;2024-01-11T10:47:02;2.00;99.90
32534;DHT22;18973;48.580;8.912;2024-01-11T10:49:30;1.90;99.90
32534;DHT22;18973;48.580;8.912;2024-01-11T10:52:00;2.00;99.90
32534;DHT22;18973;48.580;8.912;2024-01-11T10:54:28;2.30;99.90
32534;DHT22;18973;48.580;8.912;2024-01-11T10:56:56;2.20;99.90
32534;DHT22;18973;48.580;8.912;2024-01-11T10:59:26;2.20;99.90
32534;DHT22;18973;48.580;8.912;2024-01-11T11:01:57;2.20;99.90
32534;DHT22;18973;48.580;8.912;2024-01-11T11:04:24;2.20;99.90
32534;DHT22;18973;48.580;8.912;2024-01-11T11:06:55;2.40;99.90
32534;DHT22;18973;48.580;8.912;2024-01-11T11:09:22;2.30;99.90
32534;DHT22;18973;48.580;8.912;2024-01-11T11:11:49;2.20;99.90
32534;DHT22;18973;48.580;8.912;2024-01-11T11:14:15;2.20;99.90
32534;DHT22;18973;48.580;8.912;2024-01-11T11:16:41;2.30;99.90
32534;DHT22;18973;48.580;8.912;2024-01-11T11:19:08;2.30;99.90
32534;DHT22;18973;48.580;8.912;2024-01-11T11:21:42;2.40;99.90
32534;DHT22;18973;48.580;8.912;2024-01-11T11:24:08;2.50;99.90
32534;DHT22;18973;48.580;8.912;2024-01-11T11:26:35;2.60;99.90
32534;DHT22;18973;48.580;8.912;2024-01-11T11:29:02;2.70;99.90
32534;DHT22;18973;48.580;8.912;2024-01-11T11:31:44;2.80;99.90
32534;DHT22;18973;48.580;8.912;2024-01-11T11:34:19;2.80;99.90
32534;DHT22;18973;48.580;8.912;2024-01-11T11:36:50;2.70;99.90
32534;DHT22;18973;48.580;8.912;2024-01-11T11:39:20;2.80;99.90
32534;DHT22;18973;48.580;8.912;2024-01-11T11:41:47;2.80;99.90
32534;DHT22;18973;48.580;8.912;2024-01-11T11:44:16;2.60;99.90
32534;DHT22;18973;48.580;8.912;2024-01-11T11:46:42;2.50;99.90
32534;DHT22;18973;48.580;8.912;2024-01-11T11:49:09;2.30;99.90
32534;DHT22;18973;48.580;8.912;2024-01-11T11:51:39;2.40;99.90
32534;DHT22;18973;48.580;8.912;2024-01-11T11:54:04;2.40;99.90
32534;DHT22;18973;48.580;8.912;2024-01-11T11:56:31;2.40;99.90
32534;DHT22;18973;48.580;8.912;2024-01-11T11:58:57;2.90;99.90
32534;DHT22;18973;48.580;8.912;2024-01-11T12:01:23;6.80;99.90
32534;DHT22;18973;48.580;8.912;2024-01-11T12:03:49;8.20;99.90
32534;DHT22;18973;48.580;8.912;2024-01-11T12:06:17;8.20;99.90
32534;DHT22;18973;48.580;8.912;2024-01-11T12:08:43;7.30;95.80
32534;DHT22;18973;48.580;8.912;2024-01-11T12:11:12;6.00;96.90
32534;DHT22;18973;48.580;8.912;2024-01-11T12:13:39;5.10;99.30
32534;DHT22;18973;48.580;8.912;2024-01-11T12:16:05;4.80;99.90
32534;DHT22;18973;48.580;8.912;2024-01-11T12:18:30;4.50;99.90
32534;DHT22;18973;48.580;8.912;2024-01-11T12:20:59;4.20;99.90
32534;DHT22;18973;48.580;8.912;2024-01-11T12:23:28;4.10;99.90
32534;DHT22;18973;48.580;8.912;2024-01-11T12:25:58;3.70;99.90
32534;DHT22;18973;48.580;8.912;2024-01-11T12:28:26;3.60;99.90
32534;DHT22;18973;48.580;8.912;2024-01-11T12:30:52;3.50;99.90
32534;DHT22;18973;48.580;8.912;2024-01-11T12:33:18;3.50;99.90
32534;DHT22;18973;48.580;8.912;2024-01-11T12:35:44;3.40;99.90
32534;DHT22;18973;48.580;8.912;2024-01-11T12:38:11;3.20;99.90
32534;DHT22;18973;48.580;8.912;2024-01-11T12:40:39;3.10;99.90
32534;DHT22;18973;48.580;8.912;2024-01-11T12:43:08;3.20;99.90
32534;DHT22;18973;48.580;8.912;2024-01-11T12:45:37;2.90;99.90
32534;DHT22;18973;48.580;8.912;2024-01-11T12:48:06;2.80;99.90
32534;DHT22;18973;48.580;8.912;2024-01-11T12:50:33;2.80;99.90
32534;DHT22;18973;48.580;8.912;2024-01-11T12:53:09;2.80;99.90
32534;DHT22;18973;48.580;8.912;2024-01-11T12:55:42;2.80;99.90
32534;DHT22;18973;48.580;8.912;2024-01-11T12:58:08;2.80;99.90
32534;DHT22;18973;48.580;8.912;2024-01-11T13:00:37;2.80;99.90
32534;DHT22;18973;48.580;8.912;2024-01-11T13:03:07;2.80;99.90
32534;DHT22;18973;48.580;8.912;2024-01-11T13:05:35;2.80;99.90
32534;DHT22;18973;48.580;8.912;2024-01-11T13:08:11;2.90;99.90
32534;DHT22;18973;48.580;8.912;2024-01-11T13:10:37;2.90;99.90
32534;DHT22;18973;48.580;8.912;2024-01-11T13:13:04;2.70;99.90
32534;DHT22;18973;48.580;8.912;2024-01-11T13:15:31;2.30;99.90
32534;DHT22;18973;48.580;8.912;2024-01-11T13:18:02;2.40;99.90
32534;DHT22;18973;48.580;8.912;2024-01-11T13:20:28;2.60;99.90
32534;DHT22;18973;48.580;8.912;2024-01-11T13:23:17;2.60;99.90
32534;DHT22;18973;48.580;8.912;2024-01-11T13:25:46;2.70;99.90
32534;DHT22;18973;48.580;8.912;2024-01-11T13:28:12;2.70;99.90
32534;DHT22;18973;48.580;8.912;2024-01-11T13:30:39;2.50;99.90
32534;DHT22;18973;48.580;8.912;2024-01-11T13:33:06;2.60;99.90
32534;DHT22;18973;48.580;8.912;2024-01-11T13:35:36;2.50;99.90
32534;DHT22;18973;48.580;8.912;2024-01-11T13:38:03;2.60;99.90
32534;DHT22;18973;48.580;8.912;2024-01-11T13:40:29;2.60;99.90
32534;DHT22;18973;48.580;8.912;2024-01-11T13:42:56;2.50;99.90
32534;DHT22;18973;48.580;8.912;2024-01-11T13:45:22;2.40;99.90
32534;DHT22;18973;48.580;8.912;2024-01-11T13:47:48;2.40;99.90
32534;DHT22;18973;48.580;8.912;2024-01-11T13:50:14;2.40;99.90
32534;DHT22;18973;48.580;8.912;2024-01-11T13:52:40;2.50;99.90
32534;DHT22;18973;48.580;8.912;2024-01-11T13:55:07;2.60;99.90
32534;DHT22;18973;48.580;8.912;2024-01-11T13:57:38;2.60;99.90
32534;DHT22;18973;48.580;8.912;2024-01-11T14:00:05;2.60;99.90
32534;DHT22;18973;48.580;8.912;2024-01-11T14:02:31;2.50;99.90
32534;DHT22;18973;48.580;8.912;2024-01-11T14:04:57;2.30;99.90
32534;DHT22;18973;48.580;8.912;2024-01-11T14:07:23;2.40;99.90
32534;DHT22;18973;48.580;8.912;2024-01-11T14:09:50;2.40;99.90
32534;DHT22;18973;48.580;8.912;2024-01-11T14:12:16;2.40;99.90
32534;DHT22;18973;48.580;8.912;2024-01-11T14:14:42;2.40;99.90
32534;DHT22;18973;48.580;8.912;2024-01-11T14:17:08;2.40;99.90
32534;DHT22;18973;48.580;8.912;2024-01-11T14:19:35;2.50;99.90
32534;DHT22;18973;48.580;8.912;2024-01-11T14:22:00;2.50;99.90
32534;DHT22;18973;48.580;8.912;2024-01-11T14:24:26;2.50;99.90
32534;DHT22;18973;48.580;8.912;2024-01-11T14:26:52;2.60;99.90
32534;DHT22;18973;48.580;8.912;2024-01-11T14:29:21;2.60;99.90
32534;DHT22;18973;48.580;8.912;2024-01-11T14:31:46;2.50;99.90
32534;DHT22;18973;48.580;8.912;2024-01-11T14:34:12;2.50;99.90
32534;DHT22;18973;48.580;8.912;2024-01-11T14:36:38;2.50;99.90
32534;DHT22;18973;48.580;8.912;2024-01-11T14:39:04;2.40;99.90
32534;DHT22;18973;48.580;8.912;2024-01-11T14:41:30;2.30;99.90
32534;DHT22;18973;48.580;8.912;2024-01-11T14:43:57;2.40;99.90
32534;DHT22;18973;48.580;8.912;2024-01-11T14:46:25;2.20;99.90
32534;DHT22;18973;48.580;8.912;2024-01-11T14:48:51;2.20;99.90
32534;DHT22;18973;48.580;8.912;2024-01-11T14:51:17;2.20;99.90
32534;DHT22;18973;48.580;8.912;2024-01-11T14:53:43;2.20;99.90
32534;DHT22;18973;48.580;8.912;2024-01-11T14:56:08;2.10;99.90
32534;DHT22;18973;48.580;8.912;2024-01-11T14:58:34;2.10;99.90
32534;DHT22;18973;48.580;8.912;2024-01-11T15:01:01;2.00;99.90
32534;DHT22;18973;48.580;8.912;2024-01-11T15:03:26;2.00;99.90
32534;DHT22;18973;48.580;8.912;2024-01-11T15:05:52;2.00;99.90
32534;DHT22;18973;48.580;8.912;2024-01-11T15:08:19;2.00;99.90
32534;DHT22;18973;48.580;8.912;2024-01-11T15:10:50;2.10;99.90
32534;DHT22;18973;48.580;8.912;2024-01-11T15:13:19;2.10;99.90
32534;DHT22;18973;48.580;8.912;2024-01-11T15:15:45;2.00;99.90
32534;DHT22;18973;48.580;8.912;2024-01-11T15:18:10;2.00;99.90
32534;DHT22;18973;48.580;8.912;2024-01-11T15:20:36;2.00;99.90
32534;DHT22;18973;48.580;8.912;2024-01-11T15:23:02;1.90;99.90
32534;DHT22;18973;48.580;8.912;2024-01-11T15:25:28;1.90;99.90
32534;DHT22;18973;48.580;8.912;2024-01-11T15:27:54;1.80;99.90
32534;DHT22;18973;48.580;8.912;2024-01-11T15:30:20;1.80;99.90
32534;DHT22;18973;48.580;8.912;2024-01-11T15:32:46;1.70;99.90